Home > Products > Valid Products > TAF

000
FTUS41 KBGM 051401 AAA
TAFITH
TAF AMD
KITH 051401Z 0514/0612 07006KT P6SM OVC035
      TEMPO 0514/0515 BKN017
     FM051500 36008KT P6SM BKN035
     FM060000 33004KT P6SM BKN040=



000
FTUS41 KBGM 051400 AAB
TAFBGM
TAF AMD
KBGM 051400Z 0514/0612 05005KT P6SM OVC026
      TEMPO 0514/0515 BKN017
     FM051600 02008KT P6SM BKN035
     FM060000 02004KT P6SM BKN035=



000
FTUS41 KBGM 051358 AAA
TAFELM
TAF AMD
KELM 051358Z 0514/0612 05003KT P6SM OVC025
     FM051700 04008KT P6SM BKN045
     FM060000 02004KT P6SM BKN040=



000
FTUS41 KBGM 051251 AAB
TAFBGM
TAF AMD
KBGM 051251Z 0513/0612 05005KT P6SM OVC020
     FM051500 02008KT P6SM BKN035
     FM060000 02004KT P6SM BKN035=



000
FTUS41 KBGM 051251 AAB
TAFBGM
TAF AMD
KBGM 051251Z 0513/0612 05005KT P6SM OVC020
     FM051500 02008KT P6SM BKN035
     FM060000 02004KT P6SM BKN035=



000
FTUS41 KBGM 051250 AAA
TAFAVP
TAF AMD
KAVP 051250Z 0513/0612 06006KT P6SM OVC022
     FM051400 02005KT P6SM BKN025
     FM051600 02005KT P6SM BKN035=



000
FTUS41 KBGM 051250 AAA
TAFAVP
TAF AMD
KAVP 051250Z 0513/0612 06006KT P6SM OVC022
     FM051400 02005KT P6SM BKN025
     FM051600 02005KT P6SM BKN035=



000
FTUS41 KBGM 051147 CCA
TAFBGM
TAF COR
KBGM 051147Z 0512/0612 05005KT P6SM OVC020
      TEMPO 0512/0514 BKN009
     FM051500 02008KT P6SM BKN035
     FM060000 02004KT P6SM BKN035=



000
FTUS41 KBGM 051147 CCA
TAFELM
TAF COR
KELM 051147Z 0512/0612 08003KT P6SM OVC025
      TEMPO 0512/0514 BKN013
     FM051500 04008KT P6SM BKN045
     FM060000 02004KT P6SM BKN040=



000
FTUS41 KBGM 051120
TAFAVP
TAF
KAVP 051120Z 0512/0612 07002KT P6SM OVC012
     FM051400 02005KT P6SM BKN025
     FM051600 02005KT P6SM BKN035=



000
FTUS41 KBGM 051120
TAFSYR
TAF
KSYR 051120Z 0512/0612 06006KT P6SM BKN025 OVC050
     FM051800 02008KT P6SM BKN040
     FM060000 32004KT P6SM BKN040=



000
FTUS41 KBGM 051120
TAFAVP
TAF
KAVP 051120Z 0512/0612 07002KT P6SM OVC012
     FM051400 02005KT P6SM BKN025
     FM051600 02005KT P6SM BKN035=



000
FTUS41 KBGM 051120
TAFSYR
TAF
KSYR 051120Z 0512/0612 06006KT P6SM BKN025 OVC050
     FM051800 02008KT P6SM BKN040
     FM060000 32004KT P6SM BKN040=



000
FTUS41 KBGM 051120
TAFITH
TAF
KITH 051120Z 0512/0612 07006KT P6SM OVC020
     FM051500 36008KT P6SM BKN035
     FM060000 33004KT P6SM BKN040=



000
FTUS41 KBGM 051120
TAFBGM
TAF
KBGM 051120Z 0512/0612 07005KT P6SM OVC020
     FM051500 02008KT P6SM BKN035
     FM060000 02004KT P6SM BKN035=



000
FTUS41 KBGM 051120
TAFELM
TAF
KELM 051120Z 0512/0612 08003KT P6SM OVC025
     FM051500 04008KT P6SM BKN045
     FM060000 02004KT P6SM BKN040=



000
FTUS41 KBGM 050857 AAB
TAFBGM
TAF AMD
KBGM 050857Z 0509/0606 07005KT 6SM BR OVC015
     FM051400 04008KT P6SM BKN025
     FM051600 02008KT P6SM BKN035
     FM060000 02004KT P6SM BKN035=



000
FTUS41 KBGM 050857 AAB
TAFBGM
TAF AMD
KBGM 050857Z 0509/0606 07005KT 6SM BR OVC015
     FM051400 04008KT P6SM BKN025
     FM051600 02008KT P6SM BKN035
     FM060000 02004KT P6SM BKN035=



000
FTUS41 KBGM 050856 AAA
TAFAVP
TAF AMD
KAVP 050856Z 0509/0606 07002KT P6SM OVC012
      TEMPO 0509/0512 4SM BR OVC009
     FM051400 02005KT P6SM BKN025
     FM051600 02005KT P6SM BKN035
     FM060000 02003KT P6SM BKN040=



000
FTUS41 KBGM 050855 AAA
TAFELM
TAF AMD
KELM 050855Z 0509/0606 VRB03KT P6SM OVC025
      TEMPO 0509/0513 5SM BR OVC015
     FM051400 04008KT P6SM BKN045
     FM060000 02004KT P6SM BKN040=



000
FTUS41 KBGM 050855 AAA
TAFELM
TAF AMD
KELM 050855Z 0509/0606 VRB03KT P6SM OVC025
      TEMPO 0509/0513 5SM BR OVC015
     FM051400 04008KT P6SM BKN045
     FM060000 02004KT P6SM BKN040=



000
FTUS41 KBGM 050804 AAA
TAFBGM
TAF AMD
KBGM 050804Z 0508/0606 07005KT 3SM BR OVC004
      TEMPO 0508/0512 6SM BKN010 OVC020
     FM051400 04008KT P6SM BKN025
     FM051600 02008KT P6SM BKN035
     FM060000 02004KT P6SM BKN035=



000
FTUS41 KBGM 050535
TAFSYR
TAF
KSYR 050535Z 0506/0606 08006KT P6SM BKN025 OVC050
     FM051400 05007KT P6SM BKN035
     FM051800 02008KT P6SM BKN040
     FM060000 32004KT P6SM BKN040=



000
FTUS41 KBGM 050535
TAFITH
TAF
KITH 050535Z 0506/0606 08004KT P6SM OVC015
     FM051400 36007KT P6SM BKN025
     FM051600 35008KT P6SM BKN035
     FM060000 33004KT P6SM BKN040=



000
FTUS41 KBGM 050535
TAFAVP
TAF
KAVP 050535Z 0506/0606 07002KT P6SM OVC012
      TEMPO 0508/0512 2SM BR OVC009
     FM051400 02005KT P6SM BKN025
     FM051600 02005KT P6SM BKN035
     FM060000 02003KT P6SM BKN040=



000
FTUS41 KBGM 050535
TAFELM
TAF
KELM 050535Z 0506/0606 VRB03KT P6SM OVC015
      TEMPO 0509/0513 2SM BR OVC011
     FM051400 04008KT P6SM BKN045
     FM060000 02004KT P6SM BKN040=



000
FTUS41 KBGM 050535
TAFBGM
TAF
KBGM 050535Z 0506/0606 10005KT 3SM BR OVC004
     FM051400 04008KT P6SM BKN025
     FM051600 02008KT P6SM BKN035
     FM060000 02004KT P6SM BKN035=



000
FTUS41 KBGM 050535
TAFAVP
TAF
KAVP 050535Z 0506/0606 07002KT P6SM OVC012
      TEMPO 0508/0512 2SM BR OVC009
     FM051400 02005KT P6SM BKN025
     FM051600 02005KT P6SM BKN035
     FM060000 02003KT P6SM BKN040=



000
FTUS41 KBGM 050535
TAFITH
TAF
KITH 050535Z 0506/0606 08004KT P6SM OVC015
     FM051400 36007KT P6SM BKN025
     FM051600 35008KT P6SM BKN035
     FM060000 33004KT P6SM BKN040=



000
FTUS41 KBGM 050535
TAFSYR
TAF
KSYR 050535Z 0506/0606 08006KT P6SM BKN025 OVC050
     FM051400 05007KT P6SM BKN035
     FM051800 02008KT P6SM BKN040
     FM060000 32004KT P6SM BKN040=



000
FTUS41 KBGM 050535
TAFBGM
TAF
KBGM 050535Z 0506/0606 10005KT 3SM BR OVC004
     FM051400 04008KT P6SM BKN025
     FM051600 02008KT P6SM BKN035
     FM060000 02004KT P6SM BKN035=



000
FTUS41 KBGM 050535
TAFELM
TAF
KELM 050535Z 0506/0606 VRB03KT P6SM OVC015
      TEMPO 0509/0513 2SM BR OVC011
     FM051400 04008KT P6SM BKN045
     FM060000 02004KT P6SM BKN040=



000
FTUS41 KBGM 050246 AAB
TAFBGM
TAF AMD
KBGM 050246Z 0503/0524 10005KT 4SM BR OVC005
      TEMPO 0503/0506 P6SM NSW SCT005 OVC012
     FM051400 04008KT P6SM BKN025
     FM051600 02008KT P6SM BKN035=



000
FTUS41 KBGM 050246 AAB
TAFBGM
TAF AMD
KBGM 050246Z 0503/0524 10005KT 4SM BR OVC005
      TEMPO 0503/0506 P6SM NSW SCT005 OVC012
     FM051400 04008KT P6SM BKN025
     FM051600 02008KT P6SM BKN035=



000
FTUS41 KBGM 050201 AAA
TAFELM
TAF AMD
KELM 050201Z 0502/0524 VRB03KT P6SM OVC022
     FM050600 VRB06KT P6SM OVC015
      TEMPO 0509/0513 2SM BR OVC011
     FM051400 04008KT P6SM BKN045=



000
FTUS41 KBGM 042341
TAFITH
TAF
KITH 042341Z 0500/0524 10004KT P6SM SCT025 BKN040
      TEMPO 0503/0506 BKN025
     FM050600 05003KT P6SM OVC015
     FM051400 36007KT P6SM BKN025
     FM051600 35008KT P6SM BKN035=



000
FTUS41 KBGM 042341
TAFAVP
TAF
KAVP 042341Z 0500/0524 07002KT P6SM OVC012
      TEMPO 0508/0512 2SM BR OVC009
     FM051400 02005KT P6SM BKN025
     FM051600 02005KT P6SM BKN035=



000
FTUS41 KBGM 042341
TAFSYR
TAF
KSYR 042341Z 0500/0524 09005KT P6SM SCT025 BKN040
      TEMPO 0503/0506 BKN025
     FM050600 08004KT P6SM OVC025
     FM051400 05007KT P6SM BKN035
     FM051800 02008KT P6SM BKN040=



000
FTUS41 KBGM 042341
TAFELM
TAF
KELM 042341Z 0500/0524 VRB03KT P6SM BKN040
     FM050600 VRB06KT P6SM SCT015 BKN025
      TEMPO 0509/0513 2SM BR OVC015
     FM051400 04008KT P6SM BKN045=



000
FTUS41 KBGM 042341
TAFBGM
TAF
KBGM 042341Z 0500/0524 12005KT P6SM SCT015 BKN035
      TEMPO 0500/0504 BKN015
     FM050400 08004KT P6SM OVC012
      TEMPO 0509/0512 2SM BR OVC008
     FM051400 04008KT P6SM BKN025
     FM051600 02008KT P6SM BKN035=



000
FTUS41 KBGM 042042 AAC
TAFAVP
TAF AMD
KAVP 042042Z 0421/0518 VRB04KT P6SM BKN015 OVC022
     FM050000 07002KT 4SM BR OVC012
     FM051400 02006KT P6SM BKN025=



000
FTUS41 KBGM 042041 AAA
TAFELM
TAF AMD
KELM 042041Z 0421/0518 VRB05KT P6SM BKN040
      TEMPO 0421/0423 4SM -SHRA BR SCT025 OVC035
     FM042300 10003KT P6SM OVC025
     FM050200 VRB06KT P6SM OVC012
      TEMPO 0509/0513 2SM BR OVC005
     FM051500 03010KT P6SM BKN025=



000
FTUS41 KBGM 042041 AAA
TAFELM
TAF AMD
KELM 042041Z 0421/0518 VRB05KT P6SM BKN040
      TEMPO 0421/0423 4SM -SHRA BR SCT025 OVC035
     FM042300 10003KT P6SM OVC025
     FM050200 VRB06KT P6SM OVC012
      TEMPO 0509/0513 2SM BR OVC005
     FM051500 03010KT P6SM BKN025=



000
FTUS41 KBGM 042040 AAC
TAFITH
TAF AMD
KITH 042040Z 0421/0518 VRB06KT P6SM SCT025 BKN035
      TEMPO 0421/0423 4SM -SHRA BR OVC025
     FM042300 10005KT P6SM OVC025
      TEMPO 0511/0515 BKN035
     FM051500 36010KT P6SM -SHRA BKN035=



000
FTUS41 KBGM 041918 AAB
TAFAVP
TAF AMD
KAVP 041918Z 0419/0518 VRB04KT 5SM -SHRA BR OVC035
      TEMPO 0419/0422 1SM -SHRA BKN012
     FM042200 07002KT 4SM BR OVC012
     FM051400 02006KT P6SM BKN025=



000
FTUS41 KBGM 041918 AAB
TAFAVP
TAF AMD
KAVP 041918Z 0419/0518 VRB04KT 5SM -SHRA BR OVC035
      TEMPO 0419/0422 1SM -SHRA BKN012
     FM042200 07002KT 4SM BR OVC012
     FM051400 02006KT P6SM BKN025=



000
FTUS41 KBGM 041916 AAC
TAFBGM
TAF AMD
KBGM 041916Z 0419/0518 13010KT P6SM SCT015 OVC025
      TEMPO 0419/0422 3SM -SHRA BKN008
     FM042200 14006KT P6SM BKN025
     FM050000 10005KT 4SM BR OVC010
      TEMPO 0509/0512 2SM BR
     FM051400 04010KT P6SM BKN025=



000
FTUS41 KBGM 041858 AAB
TAFITH
TAF AMD
KITH 041858Z 0419/0518 VRB06KT P6SM -SHRA BKN035
      TEMPO 0419/0422 2SM TSRA BR OVC025CB
     FM042200 10005KT P6SM OVC025
      TEMPO 0511/0515 BKN035
     FM051500 36010KT P6SM -SHRA BKN035=



000
FTUS41 KBGM 041858 AAB
TAFITH
TAF AMD
KITH 041858Z 0419/0518 VRB06KT P6SM -SHRA BKN035
      TEMPO 0419/0422 2SM TSRA BR OVC025CB
     FM042200 10005KT P6SM OVC025
      TEMPO 0511/0515 BKN035
     FM051500 36010KT P6SM -SHRA BKN035=



000
FTUS41 KBGM 041828 AAA
TAFITH
TAF AMD
KITH 041828Z 0418/0518 VRB06KT P6SM -SHRA BKN035
      TEMPO 0418/0422 1SM TSRA BR OVC025CB
     FM042200 10005KT P6SM OVC025
      TEMPO 0511/0515 BKN035
     FM051500 36010KT P6SM -SHRA BKN035=



000
FTUS41 KBGM 041828 AAA
TAFITH
TAF AMD
KITH 041828Z 0418/0518 VRB06KT P6SM -SHRA BKN035
      TEMPO 0418/0422 1SM TSRA BR OVC025CB
     FM042200 10005KT P6SM OVC025
      TEMPO 0511/0515 BKN035
     FM051500 36010KT P6SM -SHRA BKN035=



000
FTUS41 KBGM 041825 AAA
TAFAVP
TAF AMD
KAVP 041825Z 0418/0518 VRB04KT P6SM OVC035
      TEMPO 0418/0422 1SM -SHRA BKN012
     FM042200 07002KT 4SM BR OVC012
     FM051400 02006KT P6SM BKN025=



000
FTUS41 KBGM 041825 AAA
TAFAVP
TAF AMD
KAVP 041825Z 0418/0518 VRB04KT P6SM OVC035
      TEMPO 0418/0422 1SM -SHRA BKN012
     FM042200 07002KT 4SM BR OVC012
     FM051400 02006KT P6SM BKN025=



000
FTUS41 KBGM 041747 CCA
TAFELM
TAF COR
KELM 041747Z 0418/0518 VRB05KT P6SM -SHRA OVC035
      TEMPO 0418/0422 2SM TSRA BKN025CB
     FM042200 10003KT P6SM OVC025
     FM050200 VRB06KT P6SM OVC012
      TEMPO 0509/0513 2SM BR OVC005
     FM051500 03010KT P6SM BKN025=



000
FTUS41 KBGM 041747 CCA
TAFELM
TAF COR
KELM 041747Z 0418/0518 VRB05KT P6SM -SHRA OVC035
      TEMPO 0418/0422 2SM TSRA BKN025CB
     FM042200 10003KT P6SM OVC025
     FM050200 VRB06KT P6SM OVC012
      TEMPO 0509/0513 2SM BR OVC005
     FM051500 03010KT P6SM BKN025=



000
FTUS41 KBGM 041730
TAFSYR
TAF
KSYR 041730Z 0418/0518 02007KT P6SM OVC035
      TEMPO 0418/0422 5SM -SHRA BR BKN025
     FM042200 12004KT P6SM -SHRA OVC025
      TEMPO 0511/0515 BKN035
     FM051500 05008KT P6SM -SHRA BKN035=



000
FTUS41 KBGM 041730
TAFBGM
TAF
KBGM 041730Z 0418/0518 13006KT P6SM SCT015 OVC025
      TEMPO 0418/0422 3SM -SHRA SCT008 BKN015
     FM042200 14006KT P6SM BKN025
     FM050000 10005KT 4SM BR OVC010
      TEMPO 0509/0512 2SM BR
     FM051400 04010KT P6SM BKN025=



000
FTUS41 KBGM 041730
TAFITH
TAF
KITH 041730Z 0418/0518 VRB06KT P6SM BKN035
      TEMPO 0418/0422 5SM -SHRA BR OVC025
     FM042200 10005KT P6SM OVC025
      TEMPO 0511/0515 BKN035
     FM051500 36010KT P6SM -SHRA BKN035=



000
FTUS41 KBGM 041730
TAFAVP
TAF
KAVP 041730Z 0418/0518 VRB04KT P6SM OVC035
      TEMPO 0418/0422 3SM -SHRA BKN022
     FM042200 07002KT 4SM BR OVC012
     FM051400 02006KT P6SM BKN025=



000
FTUS41 KBGM 041730
TAFELM
TAF
KELM 041730Z 0418/0518 VRB05KT P6SM -SHRA OVC035
      TEMPO 0418/0422 BKN025
     FM042200 10003KT P6SM OVC025
     FM050200 VRB06KT P6SM OVC012
      TEMPO 0509/0513 2SM BR OVC005
     FM051500 03010KT P6SM BKN025=



000
FTUS41 KBGM 041730 CCA
TAFAVP
TAF COR
KAVP 041730Z 0418/0518 VRB04KT P6SM OVC035
      TEMPO 0418/0422 2SM -SHRA BKN022
     FM042200 07002KT 4SM BR OVC012
     FM051400 02006KT P6SM BKN025=



000
FTUS41 KBGM 041610 AAC
TAFELM
TAF AMD
KELM 041610Z 0416/0512 12005KT P6SM -SHRA OVC035
      TEMPO 0416/0420 BKN025
     FM042100 10003KT P6SM OVC015
     FM050400 06002KT 4SM BR OVC007=



000
FTUS41 KBGM 041609 AAD
TAFBGM
TAF AMD
KBGM 041609Z 0416/0512 16006KT P6SM OVC005
      TEMPO 0416/0419 2SM -SHRA OVC015
     FM050000 10005KT 4SM BR OVC007=



000
FTUS41 KBGM 041453 AAC
TAFBGM
TAF AMD
KBGM 041453Z 0415/0512 16006KT P6SM OVC006
      TEMPO 0415/0419 2SM -SHRA OVC015
     FM050000 10005KT 4SM BR OVC007=



000
FTUS41 KBGM 041413 AAA
TAFSYR
TAF AMD
KSYR 041413Z 0414/0512 VRB04KT P6SM OVC050
      TEMPO 0414/0418 BKN025
     FM041800 11006KT P6SM -SHRA OVC025
     FM042300 06004KT P6SM OVC025=



000
FTUS41 KBGM 041413 AAB
TAFBGM
TAF AMD
KBGM 041413Z 0414/0512 13006KT P6SM OVC005
      TEMPO 0415/0419 5SM -SHRA OVC015
     FM050000 10005KT 4SM BR OVC007=



000
FTUS41 KBGM 041413 AAA
TAFSYR
TAF AMD
KSYR 041413Z 0414/0512 VRB04KT P6SM OVC050
      TEMPO 0414/0418 BKN025
     FM041800 11006KT P6SM -SHRA OVC025
     FM042300 06004KT P6SM OVC025=



000
FTUS41 KBGM 041336 AAC
TAFAVP
TAF AMD
KAVP 041336Z 0414/0512 07003KT P6SM -SHRA SCT015 OVC035
      TEMPO 0414/0416 4SM -SHRA BR BKN015
     FM041600 03003KT 6SM -SHRA OVC015
     FM042300 07002KT 4SM BR OVC007=



000
FTUS41 KBGM 041336 AAC
TAFAVP
TAF AMD
KAVP 041336Z 0414/0512 07003KT P6SM -SHRA SCT015 OVC035
      TEMPO 0414/0416 4SM -SHRA BR BKN015
     FM041600 03003KT 6SM -SHRA OVC015
     FM042300 07002KT 4SM BR OVC007=



000
FTUS41 KBGM 041334 CCA
TAFELM
TAF COR
KELM 041334Z 0414/0512 00000KT P6SM OVC035
      TEMPO 0414/0416 BKN015
     FM041600 12005KT P6SM -SHRA OVC015
     FM042100 10003KT P6SM OVC015
     FM050400 06002KT 4SM BR OVC007=



000
FTUS41 KBGM 041334 CCA
TAFELM
TAF COR
KELM 041334Z 0414/0512 00000KT P6SM OVC035
      TEMPO 0414/0416 BKN015
     FM041600 12005KT P6SM -SHRA OVC015
     FM042100 10003KT P6SM OVC015
     FM050400 06002KT 4SM BR OVC007=



000
FTUS41 KBGM 041331 AAB
TAFELM
TAF AMD
KELM 041331Z 0414/0512 00000KT 3SM BR OVC003
     FM041600 12005KT P6SM -SHRA OVC015
     FM042100 10003KT P6SM OVC015
     FM050400 06002KT 4SM BR OVC007=



000
FTUS41 KBGM 041331 AAB
TAFELM
TAF AMD
KELM 041331Z 0414/0512 00000KT 3SM BR OVC003
     FM041600 12005KT P6SM -SHRA OVC015
     FM042100 10003KT P6SM OVC015
     FM050400 06002KT 4SM BR OVC007=



000
FTUS41 KBGM 041249 AAC
TAFBGM
TAF AMD
KBGM 041249Z 0413/0512 VRB02KT 2SM BR OVC003
     FM041500 12006KT P6SM OVC009
      TEMPO 0415/0419 5SM -SHRA OVC015
     FM050000 10005KT 4SM BR OVC007=



000
FTUS41 KBGM 041249 AAC
TAFBGM
TAF AMD
KBGM 041249Z 0413/0512 VRB02KT 2SM BR OVC003
     FM041500 12006KT P6SM OVC009
      TEMPO 0415/0419 5SM -SHRA OVC015
     FM050000 10005KT 4SM BR OVC007=



000
FTUS41 KBGM 041223 AAB
TAFITH
TAF AMD
KITH 041223Z 0412/0512 12006KT P6SM SCT035
     FM041500 15007KT P6SM BKN035
      TEMPO 0415/0419 5SM -SHRA BR OVC025
     FM042000 10005KT P6SM OVC025=



000
FTUS41 KBGM 041223 AAB
TAFITH
TAF AMD
KITH 041223Z 0412/0512 12006KT P6SM SCT035
     FM041500 15007KT P6SM BKN035
      TEMPO 0415/0419 5SM -SHRA BR OVC025
     FM042000 10005KT P6SM OVC025=



000
FTUS41 KBGM 041213 AAA
TAFELM
TAF AMD
KELM 041213Z 0412/0512 00000KT 1/2SM FG OVC002
     FM041400 00000KT 2SM BR OVC007
     FM041600 12005KT P6SM -SHRA OVC015
     FM042100 10003KT P6SM OVC015
     FM050400 06002KT 4SM BR OVC007=



000
FTUS41 KBGM 041213 AAA
TAFELM
TAF AMD
KELM 041213Z 0412/0512 00000KT 1/2SM FG OVC002
     FM041400 00000KT 2SM BR OVC007
     FM041600 12005KT P6SM -SHRA OVC015
     FM042100 10003KT P6SM OVC015
     FM050400 06002KT 4SM BR OVC007=



000
FTUS41 KBGM 041205 AAB
TAFAVP
TAF AMD
KAVP 041205Z 0412/0512 07002KT P6SM -SHRA SCT010 OVC035
      TEMPO 0412/0416 2SM -SHRA BR BKN015 OVC030
     FM041600 03003KT 4SM -SHRA OVC015
     FM042300 07002KT 4SM BR OVC007=



000
FTUS41 KBGM 041205 AAB
TAFAVP
TAF AMD
KAVP 041205Z 0412/0512 07002KT P6SM -SHRA SCT010 OVC035
      TEMPO 0412/0416 2SM -SHRA BR BKN015 OVC030
     FM041600 03003KT 4SM -SHRA OVC015
     FM042300 07002KT 4SM BR OVC007=



000
FTUS41 KBGM 041156 AAA
TAFITH
TAF AMD
KITH 041156Z 0412/0512 09006KT P6SM BKN035
      TEMPO 0412/0415 BKN025
     FM041500 14006KT 5SM -SHRA BR OVC025=



000
FTUS41 KBGM 041153 AAA
TAFAVP
TAF AMD
KAVP 041153Z 0412/0512 07002KT 4SM -SHRA BR SCT010 OVC035
      TEMPO 0412/0416 2SM -SHRA BR BKN008 OVC030
     FM041600 03003KT 4SM -SHRA OVC015
     FM042300 07002KT 4SM BR OVC007=



000
FTUS41 KBGM 041151 AAA
TAFBGM
TAF AMD
KBGM 041151Z 0412/0512 VRB02KT 3SM BR OVC008
      TEMPO 0412/0413 2SM BR BKN003
     FM041500 12006KT 5SM -SHRA BR OVC009
      TEMPO 0415/0419 -SHRA OVC015
     FM050000 10005KT 4SM BR OVC007=



000
FTUS41 KBGM 041130
TAFAVP
TAF
KAVP 041130Z 0412/0512 05002KT 4SM -SHRA BR BKN010 OVC030
      TEMPO 0412/0416 2SM -SHRA BR BKN008 OVC030
     FM041600 03003KT 4SM -SHRA OVC015
     FM042300 07002KT 4SM BR OVC007=



000
FTUS41 KBGM 041130
TAFBGM
TAF
KBGM 041130Z 0412/0512 VRB02KT 1/2SM -DZ FG BKN003
      TEMPO 0412/0413 1/4SM FG VV002
     FM041500 12006KT 2SM -SHRA BR OVC008
      TEMPO 0415/0419 -SHRA OVC012
     FM050000 10005KT 4SM BR OVC007=



000
FTUS41 KBGM 041130
TAFITH
TAF
KITH 041130Z 0412/0512 VRB02KT 4SM -DZ BR OVC025
      TEMPO 0412/0415 BKN035
     FM041500 14006KT 5SM -SHRA BR OVC025=



000
FTUS41 KBGM 041130
TAFELM
TAF
KELM 041130Z 0412/0512 00000KT 1/2SM FG VV002
      TEMPO 0412/0414 1/4SM FG VV002
     FM041400 00000KT 1 1/2SM BR OVC007
     FM041600 12005KT 6SM -SHRA OVC015
     FM042100 10003KT 6SM BR OVC015
     FM050400 06002KT 4SM BR OVC007=



000
FTUS41 KBGM 041130
TAFSYR
TAF
KSYR 041130Z 0412/0512 VRB04KT P6SM OVC050
     FM041800 11006KT P6SM -SHRA OVC025
     FM042300 06004KT P6SM OVC025=



000
FTUS41 KBGM 041130
TAFSYR
TAF
KSYR 041130Z 0412/0512 VRB04KT P6SM OVC050
     FM041800 11006KT P6SM -SHRA OVC025
     FM042300 06004KT P6SM OVC025=



000
FTUS41 KBGM 041130
TAFAVP
TAF
KAVP 041130Z 0412/0512 05002KT 4SM -SHRA BR BKN010 OVC030
      TEMPO 0412/0416 2SM -SHRA BR BKN008 OVC030
     FM041600 03003KT 4SM -SHRA OVC015
     FM042300 07002KT 4SM BR OVC007=



000
FTUS41 KBGM 041130
TAFITH
TAF
KITH 041130Z 0412/0512 VRB02KT 4SM -DZ BR OVC025
      TEMPO 0412/0415 BKN035
     FM041500 14006KT 5SM -SHRA BR OVC025=



000
FTUS41 KBGM 041130
TAFELM
TAF
KELM 041130Z 0412/0512 00000KT 1/2SM FG VV002
      TEMPO 0412/0414 1/4SM FG VV002
     FM041400 00000KT 1 1/2SM BR OVC007
     FM041600 12005KT 6SM -SHRA OVC015
     FM042100 10003KT 6SM BR OVC015
     FM050400 06002KT 4SM BR OVC007=



000
FTUS41 KBGM 041130
TAFBGM
TAF
KBGM 041130Z 0412/0512 VRB02KT 1/2SM -DZ FG BKN003
      TEMPO 0412/0413 1/4SM FG VV002
     FM041500 12006KT 2SM -SHRA BR OVC008
      TEMPO 0415/0419 -SHRA OVC012
     FM050000 10005KT 4SM BR OVC007=



000
FTUS41 KBGM 041004 AAB
TAFELM
TAF AMD
KELM 041004Z 0410/0506 VRB03KT 1/2SM FG VV002
      TEMPO 0412/0414 2SM BR OVC005
     FM041400 12005KT P6SM -SHRA OVC015=



000
FTUS41 KBGM 041000 AAD
TAFBGM
TAF AMD
KBGM 041000Z 0410/0506 VRB02KT 1/2SM -DZ FG BKN003
      TEMPO 0410/0413 1/4SM FG
     FM041500 12006KT 4SM -RA BR OVC008
      TEMPO 0415/0419 -RA OVC012=



000
FTUS41 KBGM 040955 AAC
TAFAVP
TAF AMD
KAVP 040955Z 0410/0506 05002KT 4SM -SHRA BR BKN025 OVC040
      TEMPO 0410/0414 2SM -SHRA BR BKN008
     FM041400 03003KT 4SM -SHRA OVC007=



000
FTUS41 KBGM 040830 AAB
TAFBGM
TAF AMD
KBGM 040830Z 0409/0506 VRB02KT 2SM -DZ BR OVC007
     FM041500 12006KT 4SM -RA BR OVC008
      TEMPO 0415/0419 -RA OVC012=



000
FTUS41 KBGM 040830 AAB
TAFAVP
TAF AMD
KAVP 040830Z 0409/0506 VRB02KT 1/2SM -DZ FG BKN003
     FM041000 05002KT 3SM -SHRA BR OVC003
     FM041500 03003KT 4SM -SHRA OVC007=



000
FTUS41 KBGM 040830 AAA
TAFITH
TAF AMD
KITH 040830Z 0409/0506 VRB02KT 4SM -DZ BR OVC025
      TEMPO 0410/0412 2SM -DZ BR
     FM041500 14006KT 5SM -RA BR OVC015=



000
FTUS41 KBGM 040830 AAA
TAFELM
TAF AMD
KELM 040830Z 0409/0506 VRB03KT 3SM -DZ BR OVC009
     FM041400 12005KT P6SM -SHRA OVC015=



000
FTUS41 KBGM 040830 AAA
TAFSYR
TAF AMD
KSYR 040830Z 0409/0506 VRB02KT P6SM OVC050
     FM041400 11004KT P6SM OVC030
     FM041800 11006KT P6SM -SHRA OVC025=



000
FTUS41 KBGM 040830 AAB
TAFBGM
TAF AMD
KBGM 040830Z 0409/0506 VRB02KT 2SM -DZ BR OVC007
     FM041500 12006KT 4SM -RA BR OVC008
      TEMPO 0415/0419 -RA OVC012=



000
FTUS41 KBGM 040830 AAA
TAFSYR
TAF AMD
KSYR 040830Z 0409/0506 VRB02KT P6SM OVC050
     FM041400 11004KT P6SM OVC030
     FM041800 11006KT P6SM -SHRA OVC025=



000
FTUS41 KBGM 040830 AAA
TAFITH
TAF AMD
KITH 040830Z 0409/0506 VRB02KT 4SM -DZ BR OVC025
      TEMPO 0410/0412 2SM -DZ BR
     FM041500 14006KT 5SM -RA BR OVC015=



000
FTUS41 KBGM 040830 AAB
TAFAVP
TAF AMD
KAVP 040830Z 0409/0506 VRB02KT 1/2SM -DZ FG BKN003
     FM041000 05002KT 3SM -SHRA BR OVC003
     FM041500 03003KT 4SM -SHRA OVC007=



000
FTUS41 KBGM 040830 AAA
TAFELM
TAF AMD
KELM 040830Z 0409/0506 VRB03KT 3SM -DZ BR OVC009
     FM041400 12005KT P6SM -SHRA OVC015=



000
FTUS41 KBGM 040752 AAA
TAFAVP
TAF AMD
KAVP 040752Z 0408/0506 VRB02KT 1/2SM -DZ FG VV003
      TEMPO 0408/0410 1/4SM FG VV002
     FM041000 05002KT 3SM -SHRA BR OVC003
     FM041500 03003KT 4SM -SHRA OVC007=



000
FTUS41 KBGM 040525
TAFELM
TAF
KELM 040525Z 0406/0506 VRB02KT P6SM OVC050
     FM040800 00000KT 6SM BR OVC015
     FM040900 VRB02KT 4SM -DZ BR OVC009
     FM041400 12005KT P6SM -SHRA OVC015=



000
FTUS41 KBGM 040525
TAFITH
TAF
KITH 040525Z 0406/0506 VRB02KT P6SM OVC050
     FM040800 VRB02KT 4SM -DZ BR OVC025
      TEMPO 0408/0412 2SM -DZ BR
     FM041500 14006KT 5SM -RA BR OVC015=



000
FTUS41 KBGM 040525
TAFSYR
TAF
KSYR 040525Z 0406/0506 VRB02KT P6SM OVC050
     FM040900 10002KT P6SM OVC030
     FM041400 11004KT P6SM OVC035
     FM041800 11006KT P6SM -SHRA OVC025=



000
FTUS41 KBGM 040525
TAFAVP
TAF
KAVP 040525Z 0406/0506 VRB03KT 4SM -DZ BR OVC005
     FM041000 05002KT 4SM -SHRA BR OVC003
     FM041500 03003KT 4SM -SHRA OVC007=



000
FTUS41 KBGM 040525
TAFBGM
TAF
KBGM 040525Z 0406/0506 VRB02KT 6SM BR OVC012
      TEMPO 0406/0409 OVC007
     FM040900 VRB02KT 2SM -DZ BR OVC005
     FM041500 12006KT 4SM -RA BR OVC008
      TEMPO 0415/0419 -RA OVC012=



000
FTUS41 KBGM 040525
TAFBGM
TAF
KBGM 040525Z 0406/0506 VRB02KT 6SM BR OVC012
      TEMPO 0406/0409 OVC007
     FM040900 VRB02KT 2SM -DZ BR OVC005
     FM041500 12006KT 4SM -RA BR OVC008
      TEMPO 0415/0419 -RA OVC012=



000
FTUS41 KBGM 040525
TAFAVP
TAF
KAVP 040525Z 0406/0506 VRB03KT 4SM -DZ BR OVC005
     FM041000 05002KT 4SM -SHRA BR OVC003
     FM041500 03003KT 4SM -SHRA OVC007=



000
FTUS41 KBGM 040525
TAFITH
TAF
KITH 040525Z 0406/0506 VRB02KT P6SM OVC050
     FM040800 VRB02KT 4SM -DZ BR OVC025
      TEMPO 0408/0412 2SM -DZ BR
     FM041500 14006KT 5SM -RA BR OVC015=



000
FTUS41 KBGM 040525
TAFELM
TAF
KELM 040525Z 0406/0506 VRB02KT P6SM OVC050
     FM040800 00000KT 6SM BR OVC015
     FM040900 VRB02KT 4SM -DZ BR OVC009
     FM041400 12005KT P6SM -SHRA OVC015=



000
FTUS41 KBGM 040525
TAFSYR
TAF
KSYR 040525Z 0406/0506 VRB02KT P6SM OVC050
     FM040900 10002KT P6SM OVC030
     FM041400 11004KT P6SM OVC035
     FM041800 11006KT P6SM -SHRA OVC025=



000
FTUS41 KBGM 040218 AAA
TAFELM
TAF AMD
KELM 040218Z 0402/0424 VRB02KT P6SM OVC050
     FM040500 VRB02KT 4SM -DZ BR OVC015
     FM040700 VRB02KT 4SM -DZ BR OVC009
     FM041400 12005KT P6SM -SHRA OVC015=



000
FTUS41 KBGM 040217 AAB
TAFBGM
TAF AMD
KBGM 040217Z 0402/0424 VRB02KT 6SM BR OVC012
      TEMPO 0404/0405 OVC005
     FM040500 VRB02KT 2SM -DZ BR OVC005
     FM041500 12006KT 4SM -RA BR OVC007=



000
FTUS41 KBGM 040005 AAA
TAFAVP
TAF AMD
KAVP 040005Z 0400/0424 VRB03KT 2SM -DZ BR OVC005
      TEMPO 0400/0404 6SM BR
     FM041500 03003KT 4SM -SHRA OVC007=



000
FTUS41 KBGM 040005 AAA
TAFAVP
TAF AMD
KAVP 040005Z 0400/0424 VRB03KT 2SM -DZ BR OVC005
      TEMPO 0400/0404 6SM BR
     FM041500 03003KT 4SM -SHRA OVC007=



000
FTUS41 KBGM 032320
TAFAVP
TAF
KAVP 032320Z 0400/0424 VRB03KT 2SM -DZ BR OVC005
     FM041500 03003KT 4SM -SHRA OVC007=



000
FTUS41 KBGM 032320
TAFSYR
TAF
KSYR 032320Z 0400/0424 VRB02KT P6SM OVC060
     FM040900 10002KT P6SM OVC015
     FM041400 11004KT P6SM OVC035
     FM041800 11006KT P6SM -SHRA OVC015=



000
FTUS41 KBGM 032320
TAFITH
TAF
KITH 032320Z 0400/0424 VRB02KT P6SM BKN035
     FM040400 VRB02KT 4SM -DZ BR OVC015
      TEMPO 0408/0412 2SM -DZ BR
     FM041500 14006KT 5SM -RA BR OVC015=



000
FTUS41 KBGM 032320
TAFAVP
TAF
KAVP 032320Z 0400/0424 VRB03KT 2SM -DZ BR OVC005
     FM041500 03003KT 4SM -SHRA OVC007=



000
FTUS41 KBGM 032320
TAFSYR
TAF
KSYR 032320Z 0400/0424 VRB02KT P6SM OVC060
     FM040900 10002KT P6SM OVC015
     FM041400 11004KT P6SM OVC035
     FM041800 11006KT P6SM -SHRA OVC015=



000
FTUS41 KBGM 032320
TAFITH
TAF
KITH 032320Z 0400/0424 VRB02KT P6SM BKN035
     FM040400 VRB02KT 4SM -DZ BR OVC015
      TEMPO 0408/0412 2SM -DZ BR
     FM041500 14006KT 5SM -RA BR OVC015=



000
FTUS41 KBGM 032320
TAFELM
TAF
KELM 032320Z 0400/0424 VRB02KT P6SM OVC025
     FM040400 VRB02KT 4SM -DZ BR OVC015
     FM040600 VRB02KT 4SM -DZ BR OVC009
     FM041400 12005KT P6SM -SHRA OVC015=



000
FTUS41 KBGM 032320
TAFELM
TAF
KELM 032320Z 0400/0424 VRB02KT P6SM OVC025
     FM040400 VRB02KT 4SM -DZ BR OVC015
     FM040600 VRB02KT 4SM -DZ BR OVC009
     FM041400 12005KT P6SM -SHRA OVC015=



000
FTUS41 KBGM 032320
TAFBGM
TAF
KBGM 032320Z 0400/0424 VRB02KT 4SM -DZ BR OVC009
     FM040400 VRB02KT 2SM -DZ BR OVC001
     FM041500 12006KT 4SM -RA BR OVC007=



000
FTUS41 KBGM 032320
TAFBGM
TAF
KBGM 032320Z 0400/0424 VRB02KT 4SM -DZ BR OVC009
     FM040400 VRB02KT 2SM -DZ BR OVC001
     FM041500 12006KT 4SM -RA BR OVC007=



000
FTUS41 KBGM 031948 AAA
TAFAVP
TAF AMD
KAVP 031948Z 0320/0418 VRB02KT 2SM BR BKN009
     FM040300 16003KT 5SM BR BKN014 OVC050
     FM040700 VRB04KT 2SM -DZ BR OVC013
      TEMPO 0409/0413 4SM -RA BR OVC009
     FM041300 15005KT 6SM -RA BR OVC017=



000
FTUS41 KBGM 031948 AAA
TAFAVP
TAF AMD
KAVP 031948Z 0320/0418 VRB02KT 2SM BR BKN009
     FM040300 16003KT 5SM BR BKN014 OVC050
     FM040700 VRB04KT 2SM -DZ BR OVC013
      TEMPO 0409/0413 4SM -RA BR OVC009
     FM041300 15005KT 6SM -RA BR OVC017=



000
FTUS41 KBGM 031947 AAA
TAFBGM
TAF AMD
KBGM 031947Z 0320/0418 00000KT 2SM -DZ BR BKN009 OVC035
     FM040200 VRB02KT 3SM BR OVC012
     FM040800 15003KT 2SM -DZ BR OVC009
      TEMPO 0409/0413 3/4SM BR OVC005
     FM041500 14008KT 4SM -RA BR OVC018=



000
FTUS41 KBGM 031947 AAA
TAFBGM
TAF AMD
KBGM 031947Z 0320/0418 00000KT 2SM -DZ BR BKN009 OVC035
     FM040200 VRB02KT 3SM BR OVC012
     FM040800 15003KT 2SM -DZ BR OVC009
      TEMPO 0409/0413 3/4SM BR OVC005
     FM041500 14008KT 4SM -RA BR OVC018=



000
FTUS41 KBGM 031721
TAFBGM
TAF
KBGM 031721Z 0318/0418 00000KT P6SM BKN022 OVC035
     FM040400 VRB02KT 5SM BR OVC018
     FM040800 15003KT 2SM -DZ BR OVC009
      TEMPO 0409/0413 3/4SM BR OVC005
     FM041500 14008KT 4SM -RA BR OVC018=



000
FTUS41 KBGM 031721
TAFELM
TAF
KELM 031721Z 0318/0418 VRB03KT P6SM BKN018
     FM032000 00000KT P6SM BKN025
     FM040300 VRB03KT 6SM BR OVC025
     FM040800 14004KT 5SM -DZ BR OVC013
     FM041300 16007KT 3SM -RA BR OVC022=



000
FTUS41 KBGM 031721
TAFSYR
TAF
KSYR 031721Z 0318/0418 01003KT P6SM OVC035
     FM040400 00000KT 4SM BR OVC025
     FM040900 15005KT 6SM -DZ BR BKN028 OVC040
     FM041400 17004KT P6SM -RA BKN035 OVC060=



000
FTUS41 KBGM 031721
TAFAVP
TAF
KAVP 031721Z 0318/0418 VRB02KT P6SM BKN015
     FM040300 16003KT P6SM BKN024 OVC050
     FM040700 VRB04KT 2SM -DZ BR OVC013
      TEMPO 0409/0413 4SM -RA BR OVC009
     FM041300 15005KT 6SM -RA BR OVC017=



000
FTUS41 KBGM 031721
TAFITH
TAF
KITH 031721Z 0318/0418 VRB04KT P6SM BKN025 OVC050
     FM032100 VRB03KT P6SM BKN035
     FM040400 16002KT 6SM BR BKN015
     FM040900 15005KT 1 1/2SM -DZ BR OVC009
     FM041300 17008KT 5SM -RA BR BKN013 OVC035=



000
FTUS41 KBGM 031338 AAB
TAFBGM
TAF AMD
KBGM 031338Z 0314/0412 05004KT P6SM BKN012 OVC040
     FM031700 05004KT P6SM BKN022 OVC025
     FM032000 VRB05KT P6SM BKN040
     FM040400 07003KT 6SM BR OVC025=



000
FTUS41 KBGM 031337 AAA
TAFITH
TAF AMD
KITH 031337Z 0314/0412 00000KT P6SM OVC009
     FM031500 VRB05KT P6SM BKN012
     FM031900 33005KT P6SM BKN035
     FM040400 33003KT 6SM BR BKN015=



000
FTUS41 KBGM 031336 AAA
TAFSYR
TAF AMD
KSYR 031336Z 0314/0412 36004KT P6SM BKN007
     FM031500 03003KT P6SM BKN018
     FM031700 01003KT P6SM SCT050
     FM040600 14001KT P6SM OVC025=



000
FTUS41 KBGM 031311 AAA
TAFELM
TAF AMD
KELM 031311Z 0313/0412 04004KT P6SM SCT008 OVC050
      TEMPO 0313/0316 BKN012
     FM031600 VRB04KT P6SM BKN020
     FM032000 VRB04KT P6SM BKN040
     FM040600 00000KT 6SM BR OVC025=



000
FTUS41 KBGM 031311 AAA
TAFELM
TAF AMD
KELM 031311Z 0313/0412 04004KT P6SM SCT008 OVC050
      TEMPO 0313/0316 BKN012
     FM031600 VRB04KT P6SM BKN020
     FM032000 VRB04KT P6SM BKN040
     FM040600 00000KT 6SM BR OVC025=



000
FTUS41 KBGM 031129
TAFAVP
TAF
KAVP 031129Z 0312/0412 34003KT 4SM -RA BR OVC004
      TEMPO 0312/0315 -SHRA OVC011
     FM031500 35004KT P6SM BKN015=



000
FTUS41 KBGM 031129
TAFITH
TAF
KITH 031129Z 0312/0412 00000KT 5SM BR BKN007
      TEMPO 0312/0314 2SM BR
     FM031500 VRB05KT P6SM BKN012
     FM031900 33005KT P6SM BKN035
     FM040400 33003KT 6SM BR BKN015=



000
FTUS41 KBGM 031129
TAFBGM
TAF
KBGM 031129Z 0312/0412 04005KT P6SM FEW002 OVC060
      TEMPO 0312/0313 1 1/2SM BR BKN002
     FM031300 05004KT P6SM BKN008 OVC025
     FM031500 05004KT P6SM BKN015 OVC025
     FM032000 VRB05KT P6SM BKN040
     FM040400 07003KT 6SM BR OVC025=



000
FTUS41 KBGM 031129
TAFSYR
TAF
KSYR 031129Z 0312/0412 30003KT 1/4SM FG VV002
     FM031330 36004KT 1 1/2SM BR SCT003
     FM031500 03003KT P6SM BKN018
     FM031700 01003KT P6SM SCT050
     FM040600 14001KT P6SM OVC025=



000
FTUS41 KBGM 031129
TAFELM
TAF
KELM 031129Z 0312/0412 04004KT P6SM SCT008 OVC050
      TEMPO 0312/0314 5SM BR BKN008
     FM031700 VRB04KT P6SM BKN020
     FM032000 VRB04KT P6SM BKN040
     FM040600 00000KT 6SM BR OVC025=



000
FTUS41 KBGM 031129
TAFAVP
TAF
KAVP 031129Z 0312/0412 34003KT 4SM -RA BR OVC004
      TEMPO 0312/0315 -SHRA OVC011
     FM031500 35004KT P6SM BKN015=



000
FTUS41 KBGM 031129
TAFSYR
TAF
KSYR 031129Z 0312/0412 30003KT 1/4SM FG VV002
     FM031330 36004KT 1 1/2SM BR SCT003
     FM031500 03003KT P6SM BKN018
     FM031700 01003KT P6SM SCT050
     FM040600 14001KT P6SM OVC025=



000
FTUS41 KBGM 031129
TAFBGM
TAF
KBGM 031129Z 0312/0412 04005KT P6SM FEW002 OVC060
      TEMPO 0312/0313 1 1/2SM BR BKN002
     FM031300 05004KT P6SM BKN008 OVC025
     FM031500 05004KT P6SM BKN015 OVC025
     FM032000 VRB05KT P6SM BKN040
     FM040400 07003KT 6SM BR OVC025=



000
FTUS41 KBGM 031129
TAFITH
TAF
KITH 031129Z 0312/0412 00000KT 5SM BR BKN007
      TEMPO 0312/0314 2SM BR
     FM031500 VRB05KT P6SM BKN012
     FM031900 33005KT P6SM BKN035
     FM040400 33003KT 6SM BR BKN015=



000
FTUS41 KBGM 031129
TAFELM
TAF
KELM 031129Z 0312/0412 04004KT P6SM SCT008 OVC050
      TEMPO 0312/0314 5SM BR BKN008
     FM031700 VRB04KT P6SM BKN020
     FM032000 VRB04KT P6SM BKN040
     FM040600 00000KT 6SM BR OVC025=



000
FTUS41 KBGM 031010 AAD
TAFITH
TAF AMD
KITH 031010Z 0310/0406 VRB03KT 1/4SM FG BKN007
      TEMPO 0310/0313 2SM BR
     FM031300 VRB05KT P6SM BKN008
     FM031700 33005KT P6SM BKN035=



000
FTUS41 KBGM 031010 AAD
TAFITH
TAF AMD
KITH 031010Z 0310/0406 VRB03KT 1/4SM FG BKN007
      TEMPO 0310/0313 2SM BR
     FM031300 VRB05KT P6SM BKN008
     FM031700 33005KT P6SM BKN035=



000
FTUS41 KBGM 030959 AAC
TAFBGM
TAF AMD
KBGM 030959Z 0310/0406 04004KT P6SM BKN003 OVC025
     FM031400 05004KT P6SM BKN008 OVC025
     FM031500 05004KT P6SM BKN015 OVC025
     FM032000 VRB05KT P6SM BKN040=



000
FTUS41 KBGM 030959 AAC
TAFITH
TAF AMD
KITH 030959Z 0310/0406 VRB03KT 1/4SM FG SCT002
      TEMPO 0312/0313 2SM BR
     FM031300 VRB05KT P6SM BKN008
     FM031700 33005KT P6SM BKN035=



000
FTUS41 KBGM 030955 AAB
TAFELM
TAF AMD
KELM 030955Z 0310/0406 VRB04KT P6SM OVC035
      TEMPO 0310/0313 3SM BR BKN010
     FM031500 VRB04KT P6SM BKN045=



000
FTUS41 KBGM 030955 AAB
TAFELM
TAF AMD
KELM 030955Z 0310/0406 VRB04KT P6SM OVC035
      TEMPO 0310/0313 3SM BR BKN010
     FM031500 VRB04KT P6SM BKN045=



000
FTUS41 KBGM 030951 AAB
TAFITH
TAF AMD
KITH 030951Z 0310/0406 VRB03KT 1/2SM FG SCT002
      TEMPO 0312/0313 2SM BR
     FM031300 VRB05KT P6SM BKN008
     FM031700 33005KT P6SM BKN035=



000
FTUS41 KBGM 030944 AAB
TAFSYR
TAF AMD
KSYR 030944Z 0310/0406 34003KT 1/4SM FG VV002
      TEMPO 0312/0313 1/2SM FG VV002
     FM031300 36004KT 1 1/2SM BR SCT003
     FM031400 03003KT P6SM BKN018
     FM031700 01003KT P6SM SCT050=



000
FTUS41 KBGM 030852 AAA
TAFSYR
TAF AMD
KSYR 030852Z 0309/0406 34003KT 3SM BR SCT003
      TEMPO 0309/0312 1SM BR SCT003
     FM031300 36004KT P6SM SCT050=



000
FTUS41 KBGM 030852 AAB
TAFBGM
TAF AMD
KBGM 030852Z 0309/0406 04004KT P6SM OVC025
     FM032000 VRB05KT P6SM BKN040=



000
FTUS41 KBGM 030852 AAA
TAFELM
TAF AMD
KELM 030852Z 0309/0406 VRB04KT P6SM OVC035
      TEMPO 0309/0312 3SM BR
     FM031500 VRB04KT P6SM BKN045=



000
FTUS41 KBGM 030852 AAA
TAFITH
TAF AMD
KITH 030852Z 0309/0406 VRB03KT 3SM BR BKN015
      TEMPO 0309/0312 1SM BR
     FM031400 VRB05KT P6SM BKN025
     FM031700 33005KT P6SM BKN035=



000
FTUS41 KBGM 030852 AAA
TAFAVP
TAF AMD
KAVP 030852Z 0309/0406 02003KT P6SM -SHRA OVC015
      TEMPO 0309/0313 -SHRA OVC007
     FM031500 35004KT P6SM BKN025=



000
FTUS41 KBGM 030852 AAA
TAFITH
TAF AMD
KITH 030852Z 0309/0406 VRB03KT 3SM BR BKN015
      TEMPO 0309/0312 1SM BR
     FM031400 VRB05KT P6SM BKN025
     FM031700 33005KT P6SM BKN035=



000
FTUS41 KBGM 030852 AAA
TAFELM
TAF AMD
KELM 030852Z 0309/0406 VRB04KT P6SM OVC035
      TEMPO 0309/0312 3SM BR
     FM031500 VRB04KT P6SM BKN045=



000
FTUS41 KBGM 030852 AAB
TAFBGM
TAF AMD
KBGM 030852Z 0309/0406 04004KT P6SM OVC025
     FM032000 VRB05KT P6SM BKN040=



000
FTUS41 KBGM 030852 AAA
TAFAVP
TAF AMD
KAVP 030852Z 0309/0406 02003KT P6SM -SHRA OVC015
      TEMPO 0309/0313 -SHRA OVC007
     FM031500 35004KT P6SM BKN025=



000
FTUS41 KBGM 030852 AAA
TAFSYR
TAF AMD
KSYR 030852Z 0309/0406 34003KT 3SM BR SCT003
      TEMPO 0309/0312 1SM BR SCT003
     FM031300 36004KT P6SM SCT050=



000
FTUS41 KBGM 030528
TAFAVP
TAF
KAVP 030528Z 0306/0406 02003KT P6SM -SHRA OVC015
     FM031500 35004KT P6SM BKN025=



000
FTUS41 KBGM 030528
TAFSYR
TAF
KSYR 030528Z 0306/0406 34003KT P6SM OVC025
      TEMPO 0307/0311 6SM BR OVC015
     FM031300 36004KT P6SM BKN050=



000
FTUS41 KBGM 030528
TAFELM
TAF
KELM 030528Z 0306/0406 VRB04KT P6SM OVC012
      TEMPO 0307/0311 3SM BR
     FM031500 VRB04KT P6SM BKN035=



000
FTUS41 KBGM 030528
TAFBGM
TAF
KBGM 030528Z 0306/0406 04004KT P6SM OVC009
      TEMPO 0306/0309 -SHRA OVC020
     FM031500 VRB05KT P6SM BKN025=



000
FTUS41 KBGM 030528
TAFITH
TAF
KITH 030528Z 0306/0406 VRB03KT P6SM OVC015
      TEMPO 0306/0309 -SHRA
     FM030900 VRB03KT 6SM BR OVC009
     FM031400 VRB05KT P6SM BKN025
     FM031700 33005KT P6SM BKN035=



000
FTUS41 KBGM 030528
TAFAVP
TAF
KAVP 030528Z 0306/0406 02003KT P6SM -SHRA OVC015
     FM031500 35004KT P6SM BKN025=



000
FTUS41 KBGM 030528
TAFITH
TAF
KITH 030528Z 0306/0406 VRB03KT P6SM OVC015
      TEMPO 0306/0309 -SHRA
     FM030900 VRB03KT 6SM BR OVC009
     FM031400 VRB05KT P6SM BKN025
     FM031700 33005KT P6SM BKN035=



000
FTUS41 KBGM 030528
TAFSYR
TAF
KSYR 030528Z 0306/0406 34003KT P6SM OVC025
      TEMPO 0307/0311 6SM BR OVC015
     FM031300 36004KT P6SM BKN050=



000
FTUS41 KBGM 030528
TAFBGM
TAF
KBGM 030528Z 0306/0406 04004KT P6SM OVC009
      TEMPO 0306/0309 -SHRA OVC020
     FM031500 VRB05KT P6SM BKN025=



000
FTUS41 KBGM 030528
TAFELM
TAF
KELM 030528Z 0306/0406 VRB04KT P6SM OVC012
      TEMPO 0307/0311 3SM BR
     FM031500 VRB04KT P6SM BKN035=



000
FTUS41 KBGM 030419 AAA
TAFAVP
TAF AMD
KAVP 030419Z 0304/0324 02003KT P6SM -SHRA OVC015
     FM031500 35004KT P6SM BKN050=



000
FTUS41 KBGM 030419 AAA
TAFAVP
TAF AMD
KAVP 030419Z 0304/0324 02003KT P6SM -SHRA OVC015
     FM031500 35004KT P6SM BKN050=



000
FTUS41 KBGM 030239 AAC
TAFBGM
TAF AMD
KBGM 030239Z 0303/0324 01005KT P6SM OVC009
      TEMPO 0303/0305 OVC012
     FM031500 36005KT P6SM BKN035=



000
FTUS41 KBGM 022320
TAFSYR
TAF
KSYR 022320Z 0300/0324 34003KT P6SM OVC025
      TEMPO 0307/0311 4SM BR OVC015
     FM031300 36004KT P6SM BKN050=



000
FTUS41 KBGM 022320
TAFAVP
TAF
KAVP 022320Z 0300/0324 VRB05KT P6SM OVC035
     FM030500 02003KT P6SM -SHRA OVC015
     FM031500 35004KT P6SM BKN050=



000
FTUS41 KBGM 022320
TAFITH
TAF
KITH 022320Z 0300/0324 33008KT P6SM OVC009
      TEMPO 0307/0311 2SM BR
     FM031500 33005KT P6SM BKN035=



000
FTUS41 KBGM 022320
TAFELM
TAF
KELM 022320Z 0300/0324 VRB04KT P6SM OVC012
      TEMPO 0307/0311 3SM BR
     FM031500 VRB04KT P6SM BKN050=



000
FTUS41 KBGM 022320
TAFBGM
TAF
KBGM 022320Z 0300/0324 31004KT P6SM OVC009
      TEMPO 0300/0302 OVC012
     FM031500 36005KT P6SM BKN035=



000
FTUS41 KBGM 022159 AAB
TAFBGM
TAF AMD
KBGM 022159Z 0222/0318 31004KT P6SM OVC009
      TEMPO 0222/0224 OVC012
     FM031500 36005KT P6SM BKN035=



000
FTUS41 KBGM 022052 AAC
TAFBGM
TAF AMD
KBGM 022052Z 0221/0318 31004KT P6SM OVC009
      TEMPO 0221/0224 SCT009
     FM031500 36005KT P6SM BKN035=



000
FTUS41 KBGM 022052 AAC
TAFBGM
TAF AMD
KBGM 022052Z 0221/0318 31004KT P6SM OVC009
      TEMPO 0221/0224 SCT009
     FM031500 36005KT P6SM BKN035=



000
FTUS41 KBGM 021838 AAB
TAFBGM
TAF AMD
KBGM 021838Z 0219/0318 31004KT P6SM SCT009 BKN025
      TEMPO 0219/0222 BKN009
     FM031500 36005KT P6SM BKN035=



000
FTUS41 KBGM 021837 AAA
TAFITH
TAF AMD
KITH 021837Z 0219/0318 30006KT 4SM BR OVC003
     FM030000 33008KT 1SM -DZ BR OVC003
     FM031500 33005KT P6SM BKN035=



000
FTUS41 KBGM 021837 AAA
TAFITH
TAF AMD
KITH 021837Z 0219/0318 30006KT 4SM BR OVC003
     FM030000 33008KT 1SM -DZ BR OVC003
     FM031500 33005KT P6SM BKN035=



000
FTUS41 KBGM 021720
TAFBGM
TAF
KBGM 021720Z 0218/0318 31004KT P6SM OVC005
     FM031500 36005KT P6SM BKN035=



000
FTUS41 KBGM 021720
TAFITH
TAF
KITH 021720Z 0218/0318 30006KT 3/4SM -DZ BR OVC001
     FM030000 33008KT 1SM -DZ BR OVC003
     FM031500 33005KT P6SM BKN035=



000
FTUS41 KBGM 021720
TAFSYR
TAF
KSYR 021720Z 0218/0318 32006KT P6SM -SHRA OVC015
      TEMPO 0218/0220 OVC009
     FM022000 34003KT P6SM OVC015
      TEMPO 0307/0311 2SM BR OVC005
     FM031300 36004KT P6SM BKN050=



000
FTUS41 KBGM 021720
TAFAVP
TAF
KAVP 021720Z 0218/0318 VRB05KT P6SM OVC015
     FM031600 35004KT P6SM BKN050=



000
FTUS41 KBGM 021720
TAFELM
TAF
KELM 021720Z 0218/0318 VRB04KT P6SM OVC012
      TEMPO 0307/0311 3SM BR
     FM031500 VRB04KT P6SM BKN050=



000
FTUS41 KBGM 021529 AAB
TAFITH
TAF AMD
KITH 021529Z 0215/0312 VRB03KT 2SM -RA BR OVC008
      TEMPO 0215/0217 1/4SM RA FG OVC001
     FM021700 VRB05KT P6SM -SHRA OVC008
     FM022000 33008KT 3SM -DZ BR OVC005
     FM022300 33005KT P6SM SCT008 OVC012=



    US Dept of Commerce
    National Oceanic and Atmospheric Administration
    National Weather Service
    1325 East West Highway
    Silver Spring, MD 20910
    Page Author: NWS Internet Services Team
Disclaimer
Information Quality
Credits
Glossary
Privacy Policy
Freedom of Information Act (FOIA)
About Us
Career Opportunities